createdAt,value
2023-01-19T00:04:02.491Z,3.39
2023-01-19T00:09:04.441Z,3.42
2023-01-19T00:14:06.311Z,3.42
2023-01-19T00:19:08.784Z,3.40
2023-01-19T00:24:10.738Z,3.43
2023-01-19T00:29:13.530Z,3.45
2023-01-19T00:34:15.479Z,3.49
2023-01-19T00:39:17.274Z,3.53
2023-01-19T00:44:19.083Z,3.54
2023-01-19T00:49:20.996Z,3.58
2023-01-19T00:54:22.716Z,3.58
2023-01-19T00:59:25.937Z,3.54
2023-01-19T01:04:27.767Z,3.54
2023-01-19T01:09:30.099Z,3.52
2023-01-19T01:14:32.017Z,3.54
2023-01-19T01:19:34.085Z,3.55
2023-01-19T01:24:36.291Z,3.51
2023-01-19T01:29:39.743Z,3.48
2023-01-19T01:34:41.904Z,3.47
2023-01-19T01:39:43.671Z,3.46
2023-01-19T01:44:52.439Z,3.47
2023-01-19T01:50:04.159Z,3.43
2023-01-19T01:55:07.385Z,3.41
2023-01-19T02:00:10.900Z,3.41
2023-01-19T02:05:26.818Z,3.37
2023-01-19T02:10:47.288Z,3.36
2023-01-19T02:15:51.824Z,3.34
2023-01-19T02:21:00.128Z,3.31
2023-01-19T02:26:02.644Z,3.29
2023-01-19T02:31:04.829Z,3.28
2023-01-19T02:36:09.851Z,3.27
2023-01-19T02:41:15.339Z,3.26
2023-01-19T02:46:17.309Z,3.29
2023-01-19T02:51:24.207Z,3.28
2023-01-19T02:56:38.519Z,3.29
2023-01-19T03:02:11.184Z,3.28
2023-01-19T03:07:22.063Z,3.30
2023-01-19T03:12:25.955Z,3.29
2023-01-19T03:17:31.068Z,3.30
2023-01-19T03:22:34.216Z,3.32
2023-01-19T03:27:40.916Z,3.34
2023-01-19T03:32:51.611Z,3.34
2023-01-19T03:37:58.222Z,3.32
2023-01-19T03:43:02.094Z,3.31
2023-01-19T03:48:05.296Z,3.28
2023-01-19T03:53:11.419Z,3.24
2023-01-19T03:58:13.411Z,3.19
2023-01-19T04:03:16.983Z,3.12
2023-01-19T04:08:19.448Z,3.04
2023-01-19T04:13:21.214Z,3.03
2023-01-19T04:18:22.917Z,2.99
2023-01-19T04:23:25.274Z,2.97
2023-01-19T04:28:27.676Z,2.94
2023-01-19T04:33:30.031Z,2.91
2023-01-19T04:38:32.167Z,2.88
2023-01-19T04:43:34.050Z,2.85
2023-01-19T04:48:35.959Z,2.83
2023-01-19T04:53:37.812Z,2.81
2023-01-19T04:58:39.808Z,2.77
2023-01-19T05:03:41.507Z,2.72
2023-01-19T05:08:45.286Z,2.66
2023-01-19T05:13:47.198Z,2.57
2023-01-19T05:18:48.994Z,2.51
2023-01-19T05:23:50.676Z,2.47
2023-01-19T05:28:52.351Z,2.38
2023-01-19T05:33:54.106Z,2.34
2023-01-19T05:38:56.118Z,2.32
2023-01-19T05:43:59.285Z,2.29
2023-01-19T05:49:04.393Z,2.27
2023-01-19T05:54:07.522Z,2.22
2023-01-19T05:59:10.554Z,2.21
2023-01-19T06:04:12.221Z,2.19
2023-01-19T06:09:14.344Z,2.16
2023-01-19T06:14:16.163Z,2.16
2023-01-19T06:19:18.113Z,2.16
2023-01-19T06:24:20.101Z,2.16
2023-01-19T06:29:22.338Z,2.16
2023-01-19T06:34:29.150Z,2.14
2023-01-19T06:39:31.290Z,2.13
2023-01-19T06:44:33.107Z,2.13
2023-01-19T06:49:35.007Z,2.14
2023-01-19T06:54:36.975Z,2.14
2023-01-19T06:59:39.685Z,2.14
2023-01-19T07:04:41.673Z,2.14
2023-01-19T07:09:43.353Z,2.11
2023-01-19T07:14:45.266Z,2.11
2023-01-19T07:19:47.109Z,2.09
2023-01-19T07:24:48.871Z,2.09
2023-01-19T07:29:50.760Z,2.10
2023-01-19T07:34:52.348Z,2.07
2023-01-19T07:39:54.178Z,2.02
2023-01-19T07:44:55.939Z,2.03
2023-01-19T07:49:57.768Z,2.06
2023-01-19T07:54:59.562Z,2.10
2023-01-19T08:00:01.395Z,2.04
2023-01-19T08:05:03.378Z,2.03
2023-01-19T08:10:05.545Z,2.04
2023-01-19T08:15:08.195Z,2.08
2023-01-19T08:20:11.230Z,2.11
2023-01-19T08:25:12.871Z,2.11
2023-01-19T08:30:15.001Z,2.12
2023-01-19T08:35:16.696Z,2.17
2023-01-19T08:40:18.512Z,2.26
2023-01-19T08:45:20.588Z,2.33
2023-01-19T08:50:22.764Z,2.42
2023-01-19T08:55:25.445Z,2.49
2023-01-19T09:00:27.643Z,2.54
2023-01-19T09:05:32.196Z,2.57
2023-01-19T09:10:38.206Z,2.65
2023-01-19T09:15:41.297Z,2.71
2023-01-19T09:20:45.190Z,2.73
2023-01-19T09:25:47.330Z,2.76
2023-01-19T09:30:49.367Z,2.76
2023-01-19T09:35:51.994Z,2.76
2023-01-19T09:40:56.322Z,2.77
2023-01-19T09:46:00.437Z,2.81
2023-01-19T09:51:04.883Z,2.85
2023-01-19T09:56:12.456Z,2.91
2023-01-19T10:01:35.602Z,2.97
2023-01-19T10:06:37.466Z,3.06
2023-01-19T10:11:53.311Z,3.06
2023-01-19T10:17:22.402Z,3.06
2023-01-19T10:22:27.099Z,3.13
2023-01-19T10:27:32.320Z,3.23
2023-01-19T10:32:36.113Z,3.29
2023-01-19T10:37:38.691Z,3.34
2023-01-19T10:42:42.307Z,3.35
2023-01-19T10:47:47.060Z,3.34
2023-01-19T10:52:54.381Z,3.36
2023-01-19T10:57:57.580Z,3.35
2023-01-19T11:03:00.347Z,3.34
2023-01-19T11:08:22.863Z,3.37
2023-01-19T11:13:24.860Z,3.40
2023-01-19T11:18:40.191Z,3.40
2023-01-19T11:23:51.275Z,3.44
2023-01-19T11:28:56.176Z,3.58
2023-01-19T11:34:22.094Z,3.67
2023-01-19T11:39:28.277Z,3.66
2023-01-19T11:44:37.489Z,3.75
2023-01-19T11:49:47.100Z,3.86
2023-01-19T11:54:59.185Z,3.91
2023-01-19T12:00:05.314Z,3.96
2023-01-19T12:05:14.801Z,4.01
2023-01-19T12:10:37.299Z,4.08
2023-01-19T12:15:44.462Z,4.12
2023-01-19T12:20:53.516Z,4.18
2023-01-19T12:26:16.474Z,4.18
2023-01-19T12:31:21.764Z,4.16
2023-01-19T12:36:26.706Z,4.17
2023-01-19T12:41:38.691Z,4.13
2023-01-19T12:46:52.639Z,4.16
2023-01-19T12:52:17.345Z,4.10
2023-01-19T12:57:33.450Z,4.08
2023-01-19T13:02:44.096Z,4.10
2023-01-19T13:08:12.595Z,4.10
2023-01-19T13:13:22.770Z,4.12
2023-01-19T13:18:28.482Z,4.13
2023-01-19T13:23:51.471Z,4.10
2023-01-19T13:28:57.579Z,4.08
2023-01-19T13:34:01.662Z,4.03
2023-01-19T13:39:06.508Z,4.02
2023-01-19T13:44:20.856Z,4.06
2023-01-19T13:49:29.236Z,4.10
2023-01-19T13:54:31.308Z,4.07
2023-01-19T13:59:33.103Z,4.10
2023-01-19T14:04:34.947Z,4.04
2023-01-19T14:09:36.659Z,3.99
2023-01-19T14:14:38.696Z,4.04
2023-01-19T14:19:51.049Z,4.13
2023-01-19T14:24:52.824Z,4.16
2023-01-19T14:29:54.970Z,4.12
2023-01-19T14:35:04.821Z,4.14
2023-01-19T14:40:13.250Z,4.12
2023-01-19T14:45:22.453Z,4.07
2023-01-19T14:50:31.196Z,4.04
2023-01-19T14:55:51.330Z,4.01
2023-01-19T15:00:56.328Z,4.07
2023-01-19T15:06:00.255Z,4.15
2023-01-19T15:11:10.824Z,4.22
2023-01-19T15:16:12.574Z,4.27
2023-01-19T15:21:16.111Z,4.28
2023-01-19T15:26:20.850Z,4.31
2023-01-19T15:31:24.913Z,4.32
2023-01-19T15:36:27.193Z,4.31
2023-01-19T15:41:31.072Z,4.33
2023-01-19T15:46:34.827Z,4.31
2023-01-19T15:51:36.597Z,4.31
2023-01-19T15:56:38.313Z,4.31
2023-01-19T16:01:40.490Z,4.30
2023-01-19T16:06:42.401Z,4.28
2023-01-19T16:11:44.610Z,4.29
2023-01-19T16:16:46.535Z,4.23
2023-01-19T16:21:48.650Z,4.18
2023-01-19T16:26:50.431Z,4.14
2023-01-19T16:31:52.166Z,4.11
2023-01-19T16:36:54.035Z,4.12
2023-01-19T16:41:55.927Z,4.10
2023-01-19T16:46:57.679Z,4.11
2023-01-19T16:51:59.533Z,4.08
2023-01-19T16:57:01.907Z,4.07
2023-01-19T17:02:03.802Z,4.07
2023-01-19T17:07:05.845Z,4.05
2023-01-19T17:12:09.205Z,4.06
2023-01-19T17:17:10.900Z,4.04
2023-01-19T17:22:13.549Z,4.01
2023-01-19T17:27:15.466Z,3.96
2023-01-19T17:32:17.257Z,3.87
2023-01-19T17:37:19.067Z,3.85
2023-01-19T17:42:20.864Z,3.82
2023-01-19T17:47:25.558Z,3.83
2023-01-19T17:52:27.598Z,3.87
2023-01-19T17:57:30.836Z,3.88
2023-01-19T18:02:33.180Z,3.90
2023-01-19T18:07:38.464Z,3.93
2023-01-19T18:12:41.635Z,3.95
2023-01-19T18:17:43.570Z,3.95
2023-01-19T18:22:45.400Z,3.95
2023-01-19T18:27:51.761Z,3.95
2023-01-19T18:32:53.591Z,3.97
2023-01-19T18:37:57.344Z,3.99
2023-01-19T18:42:59.386Z,4.00
2023-01-19T18:48:02.635Z,4.01
2023-01-19T18:53:05.444Z,4.02
2023-01-19T18:58:07.590Z,4.04
2023-01-19T19:03:10.575Z,4.05
2023-01-19T19:08:13.063Z,4.06
2023-01-19T19:13:16.450Z,4.06
2023-01-19T19:18:18.860Z,4.08
2023-01-19T19:23:20.860Z,4.07
2023-01-19T19:28:22.744Z,4.08
2023-01-19T19:33:24.823Z,4.08
2023-01-19T19:38:28.484Z,4.06
2023-01-19T19:43:33.275Z,4.05
2023-01-19T19:48:39.322Z,4.05
2023-01-19T19:53:41.432Z,4.02
2023-01-19T19:58:43.651Z,3.96
2023-01-19T20:03:46.110Z,3.90
2023-01-19T20:08:49.922Z,3.86
2023-01-19T20:13:52.239Z,3.78
2023-01-19T20:18:57.254Z,3.72
2023-01-19T20:24:02.813Z,3.65
2023-01-19T20:29:10.563Z,3.60
2023-01-19T20:34:14.860Z,3.55
2023-01-19T20:39:20.097Z,3.50
2023-01-19T20:44:24.273Z,3.49
2023-01-19T20:49:27.756Z,3.48
2023-01-19T20:54:30.589Z,3.52
2023-01-19T20:59:34.305Z,3.54
2023-01-19T21:04:36.081Z,3.55
2023-01-19T21:09:38.999Z,3.58
2023-01-19T21:14:43.223Z,3.60
2023-01-19T21:19:46.663Z,3.61
2023-01-19T21:24:48.799Z,3.62
2023-01-19T21:29:50.738Z,3.64
2023-01-19T21:34:53.055Z,3.65
2023-01-19T21:39:55.100Z,3.67
2023-01-19T21:44:56.979Z,3.69
2023-01-19T21:49:58.896Z,3.71
2023-01-19T21:55:00.863Z,3.72
2023-01-19T22:00:02.859Z,3.73
2023-01-19T22:05:10.786Z,3.74
2023-01-19T22:10:13.103Z,3.76
2023-01-19T22:15:15.677Z,3.77
2023-01-19T22:20:17.792Z,3.76
2023-01-19T22:25:23.982Z,3.75
2023-01-19T22:30:26.153Z,3.77
2023-01-19T22:35:28.258Z,3.77
2023-01-19T22:40:30.445Z,3.78
2023-01-19T22:45:47.455Z,3.77
2023-01-19T22:50:49.406Z,3.78
2023-01-19T22:55:51.260Z,3.76
2023-01-19T23:00:53.381Z,3.76
2023-01-19T23:05:55.598Z,3.76
2023-01-19T23:10:57.624Z,3.77
2023-01-19T23:16:00.251Z,3.76
2023-01-19T23:21:07.859Z,3.77
2023-01-19T23:26:15.242Z,3.78
2023-01-19T23:31:18.491Z,3.77
2023-01-19T23:36:21.956Z,3.79
2023-01-19T23:41:25.888Z,3.80
2023-01-19T23:46:28.661Z,3.80
2023-01-19T23:51:32.806Z,3.80
2023-01-19T23:56:38.073Z,3.78
